sensor_id;sensor_type;location;lat;lon;timestamp;P1;durP1;ratioP1;P2;durP2;ratioP2
20324;SDS011;10320;49.482;11.256;2023-08-31T00:01:38;8.00;;;6.50;;
20324;SDS011;10320;49.482;11.256;2023-08-31T00:04:05;8.07;;;7.10;;
20324;SDS011;10320;49.482;11.256;2023-08-31T00:06:39;7.50;;;6.70;;
20324;SDS011;10320;49.482;11.256;2023-08-31T00:09:10;9.73;;;6.40;;
20324;SDS011;10320;49.482;11.256;2023-08-31T00:11:36;7.27;;;6.50;;
20324;SDS011;10320;49.482;11.256;2023-08-31T00:14:02;6.93;;;6.33;;
20324;SDS011;10320;49.482;11.256;2023-08-31T00:16:28;6.40;;;5.80;;
20324;SDS011;10320;49.482;11.256;2023-08-31T00:18:55;7.33;;;6.10;;
20324;SDS011;10320;49.482;11.256;2023-08-31T00:21:22;8.10;;;5.90;;
20324;SDS011;10320;49.482;11.256;2023-08-31T00:23:48;6.50;;;5.90;;
20324;SDS011;10320;49.482;11.256;2023-08-31T00:26:14;8.97;;;6.23;;
20324;SDS011;10320;49.482;11.256;2023-08-31T00:28:40;6.87;;;6.00;;
20324;SDS011;10320;49.482;11.256;2023-08-31T00:31:07;6.73;;;6.03;;
20324;SDS011;10320;49.482;11.256;2023-08-31T00:33:33;6.53;;;5.90;;
20324;SDS011;10320;49.482;11.256;2023-08-31T00:36:02;7.00;;;5.70;;
20324;SDS011;10320;49.482;11.256;2023-08-31T00:38:28;6.30;;;5.70;;
20324;SDS011;10320;49.482;11.256;2023-08-31T00:40:54;6.10;;;5.47;;
20324;SDS011;10320;49.482;11.256;2023-08-31T00:43:20;6.23;;;5.67;;
20324;SDS011;10320;49.482;11.256;2023-08-31T00:45:46;6.00;;;5.40;;
20324;SDS011;10320;49.482;11.256;2023-08-31T00:48:14;8.40;;;6.23;;
20324;SDS011;10320;49.482;11.256;2023-08-31T00:50:44;5.77;;;5.27;;
20324;SDS011;10320;49.482;11.256;2023-08-31T00:53:11;5.50;;;5.10;;
20324;SDS011;10320;49.482;11.256;2023-08-31T00:55:37;5.67;;;5.13;;
20324;SDS011;10320;49.482;11.256;2023-08-31T00:58:06;5.53;;;5.03;;
20324;SDS011;10320;49.482;11.256;2023-08-31T01:03:12;8.37;;;4.90;;
20324;SDS011;10320;49.482;11.256;2023-08-31T01:08:35;5.17;;;4.67;;
20324;SDS011;10320;49.482;11.256;2023-08-31T01:13:44;6.80;;;6.20;;
20324;SDS011;10320;49.482;11.256;2023-08-31T01:16:16;6.07;;;5.47;;
20324;SDS011;10320;49.482;11.256;2023-08-31T01:18:43;6.40;;;5.80;;
20324;SDS011;10320;49.482;11.256;2023-08-31T01:21:12;6.20;;;5.60;;
20324;SDS011;10320;49.482;11.256;2023-08-31T01:23:51;6.07;;;5.53;;
20324;SDS011;10320;49.482;11.256;2023-08-31T01:26:21;6.17;;;5.63;;
20324;SDS011;10320;49.482;11.256;2023-08-31T01:28:48;6.50;;;5.53;;
20324;SDS011;10320;49.482;11.256;2023-08-31T01:31:14;5.77;;;5.27;;
20324;SDS011;10320;49.482;11.256;2023-08-31T01:33:41;6.00;;;4.93;;
20324;SDS011;10320;49.482;11.256;2023-08-31T01:36:08;6.33;;;5.40;;
20324;SDS011;10320;49.482;11.256;2023-08-31T01:38:41;5.27;;;4.77;;
20324;SDS011;10320;49.482;11.256;2023-08-31T01:41:10;5.87;;;5.37;;
20324;SDS011;10320;49.482;11.256;2023-08-31T01:43:40;6.93;;;4.63;;
20324;SDS011;10320;49.482;11.256;2023-08-31T01:46:06;6.30;;;4.90;;
20324;SDS011;10320;49.482;11.256;2023-08-31T01:48:37;6.27;;;4.97;;
20324;SDS011;10320;49.482;11.256;2023-08-31T01:51:07;5.07;;;4.63;;
20324;SDS011;10320;49.482;11.256;2023-08-31T01:53:33;5.50;;;4.90;;
20324;SDS011;10320;49.482;11.256;2023-08-31T01:55:59;5.40;;;4.97;;
20324;SDS011;10320;49.482;11.256;2023-08-31T01:58:25;7.37;;;5.23;;
20324;SDS011;10320;49.482;11.256;2023-08-31T02:00:51;6.00;;;5.30;;
20324;SDS011;10320;49.482;11.256;2023-08-31T02:03:16;5.87;;;5.37;;
20324;SDS011;10320;49.482;11.256;2023-08-31T02:05:42;6.13;;;5.57;;
20324;SDS011;10320;49.482;11.256;2023-08-31T02:08:07;7.00;;;6.10;;
20324;SDS011;10320;49.482;11.256;2023-08-31T02:10:33;6.07;;;5.47;;
20324;SDS011;10320;49.482;11.256;2023-08-31T02:12:59;7.77;;;5.60;;
20324;SDS011;10320;49.482;11.256;2023-08-31T02:15:25;6.33;;;5.73;;
20324;SDS011;10320;49.482;11.256;2023-08-31T02:17:51;6.73;;;6.00;;
20324;SDS011;10320;49.482;11.256;2023-08-31T02:20:17;6.80;;;5.27;;
20324;SDS011;10320;49.482;11.256;2023-08-31T02:22:45;5.77;;;5.23;;
20324;SDS011;10320;49.482;11.256;2023-08-31T02:25:11;5.83;;;5.33;;
20324;SDS011;10320;49.482;11.256;2023-08-31T02:27:37;6.53;;;5.43;;
20324;SDS011;10320;49.482;11.256;2023-08-31T02:30:03;6.03;;;5.43;;
20324;SDS011;10320;49.482;11.256;2023-08-31T02:32:30;5.43;;;4.90;;
20324;SDS011;10320;49.482;11.256;2023-08-31T02:34:55;6.23;;;5.63;;
20324;SDS011;10320;49.482;11.256;2023-08-31T02:37:21;5.73;;;5.10;;
20324;SDS011;10320;49.482;11.256;2023-08-31T02:39:47;6.20;;;5.60;;
20324;SDS011;10320;49.482;11.256;2023-08-31T02:42:13;6.93;;;5.83;;
20324;SDS011;10320;49.482;11.256;2023-08-31T02:44:39;6.33;;;5.73;;
20324;SDS011;10320;49.482;11.256;2023-08-31T02:47:05;6.90;;;5.90;;
20324;SDS011;10320;49.482;11.256;2023-08-31T02:49:31;6.80;;;5.83;;
20324;SDS011;10320;49.482;11.256;2023-08-31T02:51:56;6.83;;;6.20;;
20324;SDS011;10320;49.482;11.256;2023-08-31T02:54:22;7.07;;;6.40;;
20324;SDS011;10320;49.482;11.256;2023-08-31T02:56:48;6.83;;;6.20;;
20324;SDS011;10320;49.482;11.256;2023-08-31T02:59:13;6.20;;;5.60;;
20324;SDS011;10320;49.482;11.256;2023-08-31T03:01:39;7.23;;;6.53;;
20324;SDS011;10320;49.482;11.256;2023-08-31T03:04:05;6.37;;;5.77;;
20324;SDS011;10320;49.482;11.256;2023-08-31T03:06:32;6.73;;;6.13;;
20324;SDS011;10320;49.482;11.256;2023-08-31T03:08:58;7.67;;;6.43;;
20324;SDS011;10320;49.482;11.256;2023-08-31T03:11:23;7.20;;;6.50;;
20324;SDS011;10320;49.482;11.256;2023-08-31T03:13:49;6.53;;;5.83;;
20324;SDS011;10320;49.482;11.256;2023-08-31T03:16:15;7.20;;;6.53;;
20324;SDS011;10320;49.482;11.256;2023-08-31T03:18:40;7.03;;;6.37;;
20324;SDS011;10320;49.482;11.256;2023-08-31T03:21:06;7.73;;;6.83;;
20324;SDS011;10320;49.482;11.256;2023-08-31T03:23:33;7.00;;;6.30;;
20324;SDS011;10320;49.482;11.256;2023-08-31T03:25:58;7.77;;;6.97;;
20324;SDS011;10320;49.482;11.256;2023-08-31T03:28:24;7.07;;;6.40;;
20324;SDS011;10320;49.482;11.256;2023-08-31T03:30:58;7.33;;;6.60;;
20324;SDS011;10320;49.482;11.256;2023-08-31T03:33:24;7.67;;;6.90;;
20324;SDS011;10320;49.482;11.256;2023-08-31T03:35:50;8.93;;;7.37;;
20324;SDS011;10320;49.482;11.256;2023-08-31T03:38:15;9.73;;;8.03;;
20324;SDS011;10320;49.482;11.256;2023-08-31T03:40:41;8.53;;;7.73;;
20324;SDS011;10320;49.482;11.256;2023-08-31T03:43:07;8.43;;;7.47;;
20324;SDS011;10320;49.482;11.256;2023-08-31T03:45:32;8.13;;;7.33;;
20324;SDS011;10320;49.482;11.256;2023-08-31T03:47:58;8.40;;;7.50;;
20324;SDS011;10320;49.482;11.256;2023-08-31T03:50:24;8.70;;;7.90;;
20324;SDS011;10320;49.482;11.256;2023-08-31T03:52:49;7.93;;;7.23;;
20324;SDS011;10320;49.482;11.256;2023-08-31T03:55:15;8.33;;;7.60;;
20324;SDS011;10320;49.482;11.256;2023-08-31T03:57:41;7.67;;;6.90;;
20324;SDS011;10320;49.482;11.256;2023-08-31T04:00:07;8.30;;;7.33;;
20324;SDS011;10320;49.482;11.256;2023-08-31T04:02:37;8.57;;;7.60;;
20324;SDS011;10320;49.482;11.256;2023-08-31T04:05:03;9.93;;;7.40;;
20324;SDS011;10320;49.482;11.256;2023-08-31T04:07:30;8.40;;;7.60;;
20324;SDS011;10320;49.482;11.256;2023-08-31T04:09:57;9.30;;;7.20;;
20324;SDS011;10320;49.482;11.256;2023-08-31T04:12:23;8.60;;;7.37;;
20324;SDS011;10320;49.482;11.256;2023-08-31T04:14:49;7.97;;;7.20;;
20324;SDS011;10320;49.482;11.256;2023-08-31T04:17:14;8.20;;;7.37;;
20324;SDS011;10320;49.482;11.256;2023-08-31T04:19:40;8.17;;;7.40;;
20324;SDS011;10320;49.482;11.256;2023-08-31T04:22:06;7.70;;;6.93;;
20324;SDS011;10320;49.482;11.256;2023-08-31T04:24:31;8.53;;;7.73;;
20324;SDS011;10320;49.482;11.256;2023-08-31T04:26:58;7.60;;;6.83;;
20324;SDS011;10320;49.482;11.256;2023-08-31T04:29:24;8.63;;;7.30;;
20324;SDS011;10320;49.482;11.256;2023-08-31T04:31:50;9.50;;;7.87;;
20324;SDS011;10320;49.482;11.256;2023-08-31T04:34:15;8.60;;;7.60;;
20324;SDS011;10320;49.482;11.256;2023-08-31T04:36:41;8.37;;;7.57;;
20324;SDS011;10320;49.482;11.256;2023-08-31T04:39:06;9.20;;;8.00;;
20324;SDS011;10320;49.482;11.256;2023-08-31T04:41:32;8.60;;;7.67;;
20324;SDS011;10320;49.482;11.256;2023-08-31T04:43:58;8.70;;;7.80;;
20324;SDS011;10320;49.482;11.256;2023-08-31T04:46:24;9.20;;;7.80;;
20324;SDS011;10320;49.482;11.256;2023-08-31T04:48:50;9.90;;;8.17;;
20324;SDS011;10320;49.482;11.256;2023-08-31T04:51:29;9.97;;;8.00;;
20324;SDS011;10320;49.482;11.256;2023-08-31T04:53:59;9.20;;;8.27;;
20324;SDS011;10320;49.482;11.256;2023-08-31T04:56:28;9.70;;;8.50;;
20324;SDS011;10320;49.482;11.256;2023-08-31T04:58:55;10.33;;;8.90;;
20324;SDS011;10320;49.482;11.256;2023-08-31T05:01:21;9.53;;;8.63;;
20324;SDS011;10320;49.482;11.256;2023-08-31T05:03:46;10.40;;;9.33;;
20324;SDS011;10320;49.482;11.256;2023-08-31T05:06:12;10.73;;;9.63;;
20324;SDS011;10320;49.482;11.256;2023-08-31T05:08:37;10.43;;;9.43;;
20324;SDS011;10320;49.482;11.256;2023-08-31T05:11:03;10.57;;;9.57;;
20324;SDS011;10320;49.482;11.256;2023-08-31T05:13:29;9.97;;;9.03;;
20324;SDS011;10320;49.482;11.256;2023-08-31T05:15:54;10.27;;;9.10;;
20324;SDS011;10320;49.482;11.256;2023-08-31T05:18:20;11.10;;;10.00;;
20324;SDS011;10320;49.482;11.256;2023-08-31T05:20:46;11.03;;;9.90;;
20324;SDS011;10320;49.482;11.256;2023-08-31T05:23:13;11.20;;;10.03;;
20324;SDS011;10320;49.482;11.256;2023-08-31T05:25:46;11.40;;;10.30;;
20324;SDS011;10320;49.482;11.256;2023-08-31T05:28:11;12.70;;;10.80;;
20324;SDS011;10320;49.482;11.256;2023-08-31T05:30:45;12.77;;;10.97;;
20324;SDS011;10320;49.482;11.256;2023-08-31T05:33:18;11.57;;;10.53;;
20324;SDS011;10320;49.482;11.256;2023-08-31T05:35:44;11.67;;;10.57;;
20324;SDS011;10320;49.482;11.256;2023-08-31T05:38:10;11.67;;;10.57;;
20324;SDS011;10320;49.482;11.256;2023-08-31T05:40:35;14.23;;;10.50;;
20324;SDS011;10320;49.482;11.256;2023-08-31T05:43:02;11.67;;;10.27;;
20324;SDS011;10320;49.482;11.256;2023-08-31T05:45:34;11.23;;;9.90;;
20324;SDS011;10320;49.482;11.256;2023-08-31T05:47:59;11.47;;;9.83;;
20324;SDS011;10320;49.482;11.256;2023-08-31T05:50:26;11.97;;;10.63;;
20324;SDS011;10320;49.482;11.256;2023-08-31T05:52:52;11.40;;;10.00;;
20324;SDS011;10320;49.482;11.256;2023-08-31T05:55:18;11.43;;;10.33;;
20324;SDS011;10320;49.482;11.256;2023-08-31T05:57:44;11.13;;;10.13;;
20324;SDS011;10320;49.482;11.256;2023-08-31T06:00:09;10.53;;;9.47;;
20324;SDS011;10320;49.482;11.256;2023-08-31T06:02:36;11.03;;;9.93;;
20324;SDS011;10320;49.482;11.256;2023-08-31T06:05:02;10.23;;;9.30;;
20324;SDS011;10320;49.482;11.256;2023-08-31T06:07:29;10.97;;;9.83;;
20324;SDS011;10320;49.482;11.256;2023-08-31T06:09:55;11.53;;;10.40;;
20324;SDS011;10320;49.482;11.256;2023-08-31T06:12:21;11.60;;;10.40;;
20324;SDS011;10320;49.482;11.256;2023-08-31T06:14:47;10.77;;;9.77;;
20324;SDS011;10320;49.482;11.256;2023-08-31T06:17:12;11.83;;;10.70;;
20324;SDS011;10320;49.482;11.256;2023-08-31T06:19:38;11.20;;;10.20;;
20324;SDS011;10320;49.482;11.256;2023-08-31T06:22:05;11.20;;;9.63;;
20324;SDS011;10320;49.482;11.256;2023-08-31T06:24:30;12.07;;;10.87;;
20324;SDS011;10320;49.482;11.256;2023-08-31T06:26:57;11.57;;;10.47;;
20324;SDS011;10320;49.482;11.256;2023-08-31T06:29:23;11.23;;;10.23;;
20324;SDS011;10320;49.482;11.256;2023-08-31T06:31:49;14.33;;;10.60;;
20324;SDS011;10320;49.482;11.256;2023-08-31T06:34:14;12.67;;;10.77;;
20324;SDS011;10320;49.482;11.256;2023-08-31T06:36:40;11.93;;;10.77;;
20324;SDS011;10320;49.482;11.256;2023-08-31T06:39:06;12.53;;;11.33;;
20324;SDS011;10320;49.482;11.256;2023-08-31T06:41:32;12.67;;;11.30;;
20324;SDS011;10320;49.482;11.256;2023-08-31T06:43:57;12.80;;;11.60;;
20324;SDS011;10320;49.482;11.256;2023-08-31T06:46:23;11.97;;;10.87;;
20324;SDS011;10320;49.482;11.256;2023-08-31T06:48:49;13.50;;;10.77;;
20324;SDS011;10320;49.482;11.256;2023-08-31T06:51:15;12.43;;;11.13;;
20324;SDS011;10320;49.482;11.256;2023-08-31T06:53:41;11.27;;;10.00;;
20324;SDS011;10320;49.482;11.256;2023-08-31T06:56:08;11.07;;;9.73;;
20324;SDS011;10320;49.482;11.256;2023-08-31T06:58:34;12.73;;;10.17;;
20324;SDS011;10320;49.482;11.256;2023-08-31T07:01:00;10.70;;;9.70;;
20324;SDS011;10320;49.482;11.256;2023-08-31T07:03:26;10.77;;;9.73;;
20324;SDS011;10320;49.482;11.256;2023-08-31T07:05:52;10.60;;;9.70;;
20324;SDS011;10320;49.482;11.256;2023-08-31T07:08:17;11.00;;;9.90;;
20324;SDS011;10320;49.482;11.256;2023-08-31T07:10:43;10.27;;;9.27;;
20324;SDS011;10320;49.482;11.256;2023-08-31T07:13:09;9.90;;;8.90;;
20324;SDS011;10320;49.482;11.256;2023-08-31T07:15:34;10.07;;;9.10;;
20324;SDS011;10320;49.482;11.256;2023-08-31T07:18:00;8.77;;;7.97;;
20324;SDS011;10320;49.482;11.256;2023-08-31T07:20:26;8.80;;;7.97;;
20324;SDS011;10320;49.482;11.256;2023-08-31T07:22:51;7.97;;;7.17;;
20324;SDS011;10320;49.482;11.256;2023-08-31T07:25:17;8.20;;;7.07;;
20324;SDS011;10320;49.482;11.256;2023-08-31T07:27:43;8.07;;;7.23;;
20324;SDS011;10320;49.482;11.256;2023-08-31T07:30:09;7.37;;;6.70;;
20324;SDS011;10320;49.482;11.256;2023-08-31T07:32:35;7.37;;;6.43;;
20324;SDS011;10320;49.482;11.256;2023-08-31T07:35:01;8.50;;;6.23;;
20324;SDS011;10320;49.482;11.256;2023-08-31T07:37:29;8.00;;;6.40;;
20324;SDS011;10320;49.482;11.256;2023-08-31T07:39:55;6.40;;;5.43;;
20324;SDS011;10320;49.482;11.256;2023-08-31T07:42:21;6.53;;;5.77;;
20324;SDS011;10320;49.482;11.256;2023-08-31T07:44:46;7.87;;;5.37;;
20324;SDS011;10320;49.482;11.256;2023-08-31T07:47:12;6.67;;;5.30;;
20324;SDS011;10320;49.482;11.256;2023-08-31T07:49:37;7.20;;;5.33;;
20324;SDS011;10320;49.482;11.256;2023-08-31T07:52:03;5.70;;;4.87;;
20324;SDS011;10320;49.482;11.256;2023-08-31T07:54:32;5.63;;;5.13;;
20324;SDS011;10320;49.482;11.256;2023-08-31T07:56:57;6.83;;;4.67;;
20324;SDS011;10320;49.482;11.256;2023-08-31T07:59:23;5.37;;;4.30;;
20324;SDS011;10320;49.482;11.256;2023-08-31T08:01:49;7.27;;;5.10;;
20324;SDS011;10320;49.482;11.256;2023-08-31T08:04:14;5.10;;;4.57;;
20324;SDS011;10320;49.482;11.256;2023-08-31T08:06:40;5.50;;;4.37;;
20324;SDS011;10320;49.482;11.256;2023-08-31T08:09:07;6.00;;;4.40;;
20324;SDS011;10320;49.482;11.256;2023-08-31T08:11:34;5.17;;;3.70;;
20324;SDS011;10320;49.482;11.256;2023-08-31T08:14:00;5.77;;;3.90;;
20324;SDS011;10320;49.482;11.256;2023-08-31T08:16:25;6.03;;;4.10;;
20324;SDS011;10320;49.482;11.256;2023-08-31T08:18:51;5.53;;;3.87;;
20324;SDS011;10320;49.482;11.256;2023-08-31T08:21:18;5.47;;;3.90;;
20324;SDS011;10320;49.482;11.256;2023-08-31T08:23:43;5.50;;;3.83;;
20324;SDS011;10320;49.482;11.256;2023-08-31T08:26:09;5.37;;;3.20;;
20324;SDS011;10320;49.482;11.256;2023-08-31T08:28:35;5.13;;;3.13;;
20324;SDS011;10320;49.482;11.256;2023-08-31T08:31:01;5.00;;;3.40;;
20324;SDS011;10320;49.482;11.256;2023-08-31T08:33:30;3.93;;;3.10;;
20324;SDS011;10320;49.482;11.256;2023-08-31T08:35:59;6.87;;;3.53;;
20324;SDS011;10320;49.482;11.256;2023-08-31T08:38:25;3.70;;;3.03;;
20324;SDS011;10320;49.482;11.256;2023-08-31T08:40:51;5.27;;;3.17;;
20324;SDS011;10320;49.482;11.256;2023-08-31T08:43:17;4.93;;;3.13;;
20324;SDS011;10320;49.482;11.256;2023-08-31T08:45:48;4.43;;;2.80;;
20324;SDS011;10320;49.482;11.256;2023-08-31T08:48:15;5.47;;;3.10;;
20324;SDS011;10320;49.482;11.256;2023-08-31T08:50:42;3.63;;;3.00;;
20324;SDS011;10320;49.482;11.256;2023-08-31T08:53:08;3.67;;;2.50;;
20324;SDS011;10320;49.482;11.256;2023-08-31T08:55:35;4.70;;;3.20;;
20324;SDS011;10320;49.482;11.256;2023-08-31T08:58:01;5.23;;;2.80;;
20324;SDS011;10320;49.482;11.256;2023-08-31T09:00:28;3.70;;;2.80;;
20324;SDS011;10320;49.482;11.256;2023-08-31T09:02:55;3.90;;;2.60;;
20324;SDS011;10320;49.482;11.256;2023-08-31T09:05:21;5.37;;;2.60;;
20324;SDS011;10320;49.482;11.256;2023-08-31T09:08:00;4.57;;;2.10;;
20324;SDS011;10320;49.482;11.256;2023-08-31T09:10:35;4.73;;;2.50;;
20324;SDS011;10320;49.482;11.256;2023-08-31T09:13:04;2.83;;;2.40;;
20324;SDS011;10320;49.482;11.256;2023-08-31T09:15:42;4.57;;;2.93;;
20324;SDS011;10320;49.482;11.256;2023-08-31T09:18:13;3.37;;;2.20;;
20324;SDS011;10320;49.482;11.256;2023-08-31T09:21:10;3.13;;;2.80;;
20324;SDS011;10320;49.482;11.256;2023-08-31T09:23:36;3.40;;;2.40;;
20324;SDS011;10320;49.482;11.256;2023-08-31T09:26:03;2.47;;;2.27;;
20324;SDS011;10320;49.482;11.256;2023-08-31T09:28:29;3.93;;;2.70;;
20324;SDS011;10320;49.482;11.256;2023-08-31T09:31:05;3.20;;;2.60;;
20324;SDS011;10320;49.482;11.256;2023-08-31T09:33:32;3.17;;;2.60;;
20324;SDS011;10320;49.482;11.256;2023-08-31T09:36:00;6.17;;;3.07;;
20324;SDS011;10320;49.482;11.256;2023-08-31T09:38:26;3.63;;;2.37;;
20324;SDS011;10320;49.482;11.256;2023-08-31T09:40:54;2.97;;;2.20;;
20324;SDS011;10320;49.482;11.256;2023-08-31T09:43:32;4.00;;;2.30;;
20324;SDS011;10320;49.482;11.256;2023-08-31T09:45:58;2.53;;;2.30;;
20324;SDS011;10320;49.482;11.256;2023-08-31T09:48:24;3.13;;;1.97;;
20324;SDS011;10320;49.482;11.256;2023-08-31T09:50:52;4.43;;;2.40;;
20324;SDS011;10320;49.482;11.256;2023-08-31T09:53:19;4.33;;;2.83;;
20324;SDS011;10320;49.482;11.256;2023-08-31T09:55:46;4.27;;;2.40;;
20324;SDS011;10320;49.482;11.256;2023-08-31T09:58:20;2.60;;;2.23;;
20324;SDS011;10320;49.482;11.256;2023-08-31T10:00:46;3.77;;;2.10;;
20324;SDS011;10320;49.482;11.256;2023-08-31T10:03:14;2.83;;;2.40;;
20324;SDS011;10320;49.482;11.256;2023-08-31T10:05:42;3.83;;;2.53;;
20324;SDS011;10320;49.482;11.256;2023-08-31T10:08:08;3.40;;;2.30;;
20324;SDS011;10320;49.482;11.256;2023-08-31T10:10:34;3.05;;;2.00;;
20324;SDS011;10320;49.482;11.256;2023-08-31T10:13:01;1.93;;;1.73;;
20324;SDS011;10320;49.482;11.256;2023-08-31T10:15:31;3.50;;;2.03;;
20324;SDS011;10320;49.482;11.256;2023-08-31T10:18:08;3.07;;;1.83;;
20324;SDS011;10320;49.482;11.256;2023-08-31T10:20:34;3.07;;;2.00;;
20324;SDS011;10320;49.482;11.256;2023-08-31T10:23:06;2.10;;;1.83;;
20324;SDS011;10320;49.482;11.256;2023-08-31T10:28:23;2.70;;;1.77;;
20324;SDS011;10320;49.482;11.256;2023-08-31T10:33:47;3.53;;;2.20;;
20324;SDS011;10320;49.482;11.256;2023-08-31T10:36:44;2.40;;;2.20;;
20324;SDS011;10320;49.482;11.256;2023-08-31T10:39:11;3.50;;;2.00;;
20324;SDS011;10320;49.482;11.256;2023-08-31T10:41:38;3.07;;;2.20;;
20324;SDS011;10320;49.482;11.256;2023-08-31T10:44:17;4.27;;;2.30;;
20324;SDS011;10320;49.482;11.256;2023-08-31T10:46:44;3.23;;;2.40;;
20324;SDS011;10320;49.482;11.256;2023-08-31T10:51:37;3.23;;;2.17;;
20324;SDS011;10320;49.482;11.256;2023-08-31T10:56:52;3.23;;;2.50;;
20324;SDS011;10320;49.482;11.256;2023-08-31T11:02:58;3.73;;;2.83;;
20324;SDS011;10320;49.482;11.256;2023-08-31T11:05:09;3.63;;;2.80;;
20324;SDS011;10320;49.482;11.256;2023-08-31T11:07:36;3.80;;;2.60;;
20324;SDS011;10320;49.482;11.256;2023-08-31T11:10:10;3.30;;;2.60;;
20324;SDS011;10320;49.482;11.256;2023-08-31T11:12:36;3.10;;;2.70;;
20324;SDS011;10320;49.482;11.256;2023-08-31T11:15:02;2.70;;;2.47;;
20324;SDS011;10320;49.482;11.256;2023-08-31T11:17:29;3.97;;;2.90;;
20324;SDS011;10320;49.482;11.256;2023-08-31T11:19:56;4.07;;;2.83;;
20324;SDS011;10320;49.482;11.256;2023-08-31T11:22:22;3.80;;;2.40;;
20324;SDS011;10320;49.482;11.256;2023-08-31T11:24:47;5.10;;;2.73;;
20324;SDS011;10320;49.482;11.256;2023-08-31T11:27:14;3.23;;;2.60;;
20324;SDS011;10320;49.482;11.256;2023-08-31T11:29:43;4.70;;;3.00;;
20324;SDS011;10320;49.482;11.256;2023-08-31T11:32:09;3.70;;;2.70;;
20324;SDS011;10320;49.482;11.256;2023-08-31T11:34:35;3.13;;;2.70;;
20324;SDS011;10320;49.482;11.256;2023-08-31T11:37:04;4.07;;;2.57;;
20324;SDS011;10320;49.482;11.256;2023-08-31T11:39:30;3.70;;;2.80;;
20324;SDS011;10320;49.482;11.256;2023-08-31T11:41:57;3.60;;;2.67;;
20324;SDS011;10320;49.482;11.256;2023-08-31T11:44:22;3.63;;;2.63;;
20324;SDS011;10320;49.482;11.256;2023-08-31T11:46:48;2.80;;;2.53;;
20324;SDS011;10320;49.482;11.256;2023-08-31T11:49:15;3.03;;;2.60;;
20324;SDS011;10320;49.482;11.256;2023-08-31T11:51:42;4.15;;;2.55;;
20324;SDS011;10320;49.482;11.256;2023-08-31T11:54:10;3.60;;;2.65;;
20324;SDS011;10320;49.482;11.256;2023-08-31T11:56:42;4.05;;;2.63;;
20324;SDS011;10320;49.482;11.256;2023-08-31T11:59:11;3.00;;;2.67;;
20324;SDS011;10320;49.482;11.256;2023-08-31T12:01:40;3.40;;;2.13;;
20324;SDS011;10320;49.482;11.256;2023-08-31T12:04:14;3.08;;;2.75;;
20324;SDS011;10320;49.482;11.256;2023-08-31T12:06:49;3.85;;;2.30;;
20324;SDS011;10320;49.482;11.256;2023-08-31T12:09:16;2.40;;;2.20;;
20324;SDS011;10320;49.482;11.256;2023-08-31T12:11:49;4.17;;;2.50;;
20324;SDS011;10320;49.482;11.256;2023-08-31T12:14:23;2.90;;;2.20;;
20324;SDS011;10320;49.482;11.256;2023-08-31T12:16:50;3.50;;;2.60;;
20324;SDS011;10320;49.482;11.256;2023-08-31T12:19:17;3.73;;;2.17;;
20324;SDS011;10320;49.482;11.256;2023-08-31T12:21:44;3.83;;;2.30;;
20324;SDS011;10320;49.482;11.256;2023-08-31T12:24:11;4.17;;;2.57;;
20324;SDS011;10320;49.482;11.256;2023-08-31T12:26:37;2.97;;;2.33;;
20324;SDS011;10320;49.482;11.256;2023-08-31T12:29:04;6.18;;;2.40;;
20324;SDS011;10320;49.482;11.256;2023-08-31T12:31:30;3.05;;;2.38;;
20324;SDS011;10320;49.482;11.256;2023-08-31T12:33:57;3.75;;;2.45;;
20324;SDS011;10320;49.482;11.256;2023-08-31T12:36:22;2.35;;;2.03;;
20324;SDS011;10320;49.482;11.256;2023-08-31T12:38:48;3.03;;;2.05;;
20324;SDS011;10320;49.482;11.256;2023-08-31T12:41:14;2.28;;;2.08;;
20324;SDS011;10320;49.482;11.256;2023-08-31T12:43:39;3.60;;;2.00;;
20324;SDS011;10320;49.482;11.256;2023-08-31T12:46:05;3.38;;;1.90;;
20324;SDS011;10320;49.482;11.256;2023-08-31T12:48:33;3.20;;;2.25;;
20324;SDS011;10320;49.482;11.256;2023-08-31T12:50:59;2.72;;;1.90;;
20324;SDS011;10320;49.482;11.256;2023-08-31T12:53:25;2.10;;;1.90;;
20324;SDS011;10320;49.482;11.256;2023-08-31T12:55:50;3.33;;;2.10;;
20324;SDS011;10320;49.482;11.256;2023-08-31T12:58:16;4.82;;;1.90;;
20324;SDS011;10320;49.482;11.256;2023-08-31T13:00:42;2.22;;;1.85;;
20324;SDS011;10320;49.482;11.256;2023-08-31T13:03:12;2.70;;;1.83;;
20324;SDS011;10320;49.482;11.256;2023-08-31T13:05:38;2.63;;;2.15;;
20324;SDS011;10320;49.482;11.256;2023-08-31T13:08:05;2.33;;;2.03;;
20324;SDS011;10320;49.482;11.256;2023-08-31T13:10:31;3.50;;;1.70;;
20324;SDS011;10320;49.482;11.256;2023-08-31T13:12:57;3.55;;;1.70;;
20324;SDS011;10320;49.482;11.256;2023-08-31T13:15:22;3.08;;;1.80;;
20324;SDS011;10320;49.482;11.256;2023-08-31T13:17:48;3.75;;;1.90;;
20324;SDS011;10320;49.482;11.256;2023-08-31T13:20:14;2.78;;;1.80;;
20324;SDS011;10320;49.482;11.256;2023-08-31T13:22:39;2.95;;;2.00;;
20324;SDS011;10320;49.482;11.256;2023-08-31T13:25:05;2.92;;;1.98;;
20324;SDS011;10320;49.482;11.256;2023-08-31T13:27:31;2.15;;;1.83;;
20324;SDS011;10320;49.482;11.256;2023-08-31T13:29:58;2.00;;;1.60;;
20324;SDS011;10320;49.482;11.256;2023-08-31T13:32:24;2.28;;;1.90;;
20324;SDS011;10320;49.482;11.256;2023-08-31T13:34:50;3.15;;;1.90;;
20324;SDS011;10320;49.482;11.256;2023-08-31T13:37:17;2.58;;;1.88;;
20324;SDS011;10320;49.482;11.256;2023-08-31T13:39:42;1.95;;;1.60;;
20324;SDS011;10320;49.482;11.256;2023-08-31T13:42:08;3.25;;;1.70;;
20324;SDS011;10320;49.482;11.256;2023-08-31T13:44:33;2.10;;;1.75;;
20324;SDS011;10320;49.482;11.256;2023-08-31T13:47:00;3.47;;;2.20;;
20324;SDS011;10320;49.482;11.256;2023-08-31T13:49:28;2.58;;;1.77;;
20324;SDS011;10320;49.482;11.256;2023-08-31T13:51:53;4.28;;;2.00;;
20324;SDS011;10320;49.482;11.256;2023-08-31T13:54:19;2.20;;;1.50;;
20324;SDS011;10320;49.482;11.256;2023-08-31T13:56:45;2.17;;;1.98;;
20324;SDS011;10320;49.482;11.256;2023-08-31T13:59:10;4.30;;;2.05;;
20324;SDS011;10320;49.482;11.256;2023-08-31T14:01:36;2.50;;;1.83;;
20324;SDS011;10320;49.482;11.256;2023-08-31T14:04:03;2.92;;;1.65;;
20324;SDS011;10320;49.482;11.256;2023-08-31T14:06:29;1.60;;;1.50;;
20324;SDS011;10320;49.482;11.256;2023-08-31T14:08:55;2.05;;;1.85;;
20324;SDS011;10320;49.482;11.256;2023-08-31T14:11:20;2.42;;;1.65;;
20324;SDS011;10320;49.482;11.256;2023-08-31T14:13:46;2.13;;;1.73;;
20324;SDS011;10320;49.482;11.256;2023-08-31T14:16:12;3.00;;;1.60;;
20324;SDS011;10320;49.482;11.256;2023-08-31T14:18:37;3.58;;;1.70;;
20324;SDS011;10320;49.482;11.256;2023-08-31T14:21:03;2.40;;;1.60;;
20324;SDS011;10320;49.482;11.256;2023-08-31T14:23:29;3.67;;;1.90;;
20324;SDS011;10320;49.482;11.256;2023-08-31T14:26:04;1.95;;;1.67;;
20324;SDS011;10320;49.482;11.256;2023-08-31T14:28:30;1.83;;;1.55;;
20324;SDS011;10320;49.482;11.256;2023-08-31T14:30:55;2.20;;;1.95;;
20324;SDS011;10320;49.482;11.256;2023-08-31T14:33:21;2.33;;;1.60;;
20324;SDS011;10320;49.482;11.256;2023-08-31T14:35:49;2.17;;;1.73;;
20324;SDS011;10320;49.482;11.256;2023-08-31T14:38:20;3.88;;;1.92;;
20324;SDS011;10320;49.482;11.256;2023-08-31T14:40:47;1.98;;;1.55;;
20324;SDS011;10320;49.482;11.256;2023-08-31T14:43:12;2.55;;;1.50;;
20324;SDS011;10320;49.482;11.256;2023-08-31T14:45:38;1.83;;;1.60;;
20324;SDS011;10320;49.482;11.256;2023-08-31T14:48:04;3.50;;;2.15;;
20324;SDS011;10320;49.482;11.256;2023-08-31T14:50:30;2.70;;;1.92;;
20324;SDS011;10320;49.482;11.256;2023-08-31T14:52:56;2.53;;;1.70;;